sensor_id;sensor_type;location;lat;lon;timestamp;temperature;humidity
21602;DHT22;10963;50.934;4.668;2022-07-17T00:02:07;16.30;99.90
21602;DHT22;10963;50.934;4.668;2022-07-17T00:04:32;16.20;99.90
21602;DHT22;10963;50.934;4.668;2022-07-17T00:06:58;16.10;99.90
21602;DHT22;10963;50.934;4.668;2022-07-17T00:09:24;16.20;99.90
21602;DHT22;10963;50.934;4.668;2022-07-17T00:11:50;16.20;99.90
21602;DHT22;10963;50.934;4.668;2022-07-17T00:14:18;16.20;99.90
21602;DHT22;10963;50.934;4.668;2022-07-17T00:16:43;16.20;99.90
21602;DHT22;10963;50.934;4.668;2022-07-17T00:19:10;16.20;99.90
21602;DHT22;10963;50.934;4.668;2022-07-17T00:21:36;16.10;99.90
21602;DHT22;10963;50.934;4.668;2022-07-17T00:24:04;16.10;99.90
21602;DHT22;10963;50.934;4.668;2022-07-17T00:26:34;16.00;99.90
21602;DHT22;10963;50.934;4.668;2022-07-17T00:28:59;16.00;99.90
21602;DHT22;10963;50.934;4.668;2022-07-17T00:31:25;16.00;99.90
21602;DHT22;10963;50.934;4.668;2022-07-17T00:33:51;16.00;99.90
21602;DHT22;10963;50.934;4.668;2022-07-17T00:36:17;15.90;99.90
21602;DHT22;10963;50.934;4.668;2022-07-17T00:38:45;15.80;99.90
21602;DHT22;10963;50.934;4.668;2022-07-17T00:41:14;15.60;99.90
21602;DHT22;10963;50.934;4.668;2022-07-17T00:43:39;15.60;99.90
21602;DHT22;10963;50.934;4.668;2022-07-17T00:46:06;15.60;99.90
21602;DHT22;10963;50.934;4.668;2022-07-17T00:48:32;15.50;99.90
21602;DHT22;10963;50.934;4.668;2022-07-17T00:51:00;15.60;99.90
21602;DHT22;10963;50.934;4.668;2022-07-17T00:53:28;15.60;99.90
21602;DHT22;10963;50.934;4.668;2022-07-17T00:55:55;15.70;99.90
21602;DHT22;10963;50.934;4.668;2022-07-17T00:58:23;15.70;99.90
21602;DHT22;10963;50.934;4.668;2022-07-17T01:00:51;15.50;99.90
21602;DHT22;10963;50.934;4.668;2022-07-17T01:03:22;15.40;99.90
21602;DHT22;10963;50.934;4.668;2022-07-17T01:05:48;15.20;99.90
21602;DHT22;10963;50.934;4.668;2022-07-17T01:08:19;15.30;99.90
21602;DHT22;10963;50.934;4.668;2022-07-17T01:10:45;15.40;99.90
21602;DHT22;10963;50.934;4.668;2022-07-17T01:13:13;15.30;99.90
21602;DHT22;10963;50.934;4.668;2022-07-17T01:15:40;15.20;99.90
21602;DHT22;10963;50.934;4.668;2022-07-17T01:18:08;15.10;99.90
21602;DHT22;10963;50.934;4.668;2022-07-17T01:20:36;15.20;99.90
21602;DHT22;10963;50.934;4.668;2022-07-17T01:23:04;15.10;99.90
21602;DHT22;10963;50.934;4.668;2022-07-17T01:25:32;15.10;99.90
21602;DHT22;10963;50.934;4.668;2022-07-17T01:27:59;15.10;99.90
21602;DHT22;10963;50.934;4.668;2022-07-17T01:30:25;15.10;99.90
21602;DHT22;10963;50.934;4.668;2022-07-17T01:32:51;15.00;99.90
21602;DHT22;10963;50.934;4.668;2022-07-17T01:35:17;15.10;99.90
21602;DHT22;10963;50.934;4.668;2022-07-17T01:37:45;15.10;99.90
21602;DHT22;10963;50.934;4.668;2022-07-17T01:40:14;14.90;99.90
21602;DHT22;10963;50.934;4.668;2022-07-17T01:42:44;14.90;99.90
21602;DHT22;10963;50.934;4.668;2022-07-17T01:45:11;14.80;99.90
21602;DHT22;10963;50.934;4.668;2022-07-17T01:47:38;14.80;99.90
21602;DHT22;10963;50.934;4.668;2022-07-17T01:50:05;14.80;99.90
21602;DHT22;10963;50.934;4.668;2022-07-17T01:52:35;14.70;99.90
21602;DHT22;10963;50.934;4.668;2022-07-17T01:55:01;14.60;99.90
21602;DHT22;10963;50.934;4.668;2022-07-17T01:57:27;14.70;99.90
21602;DHT22;10963;50.934;4.668;2022-07-17T01:59:58;14.70;99.90
21602;DHT22;10963;50.934;4.668;2022-07-17T02:02:23;14.70;99.90
21602;DHT22;10963;50.934;4.668;2022-07-17T02:04:51;14.80;99.90
21602;DHT22;10963;50.934;4.668;2022-07-17T02:07:19;14.80;99.90
21602;DHT22;10963;50.934;4.668;2022-07-17T02:09:45;14.80;99.90
21602;DHT22;10963;50.934;4.668;2022-07-17T02:12:11;14.80;99.90
21602;DHT22;10963;50.934;4.668;2022-07-17T02:14:37;14.70;99.90
21602;DHT22;10963;50.934;4.668;2022-07-17T02:17:05;14.60;99.90
21602;DHT22;10963;50.934;4.668;2022-07-17T02:19:31;14.60;99.90
21602;DHT22;10963;50.934;4.668;2022-07-17T02:22:01;14.60;99.90
21602;DHT22;10963;50.934;4.668;2022-07-17T02:24:27;14.50;99.90
21602;DHT22;10963;50.934;4.668;2022-07-17T02:26:55;14.50;99.90
21602;DHT22;10963;50.934;4.668;2022-07-17T02:29:20;14.40;99.90
21602;DHT22;10963;50.934;4.668;2022-07-17T02:31:49;14.40;99.90
21602;DHT22;10963;50.934;4.668;2022-07-17T02:34:18;14.50;99.90
21602;DHT22;10963;50.934;4.668;2022-07-17T02:36:46;14.50;99.90
21602;DHT22;10963;50.934;4.668;2022-07-17T02:39:12;14.50;99.90
21602;DHT22;10963;50.934;4.668;2022-07-17T02:41:37;14.30;99.90
21602;DHT22;10963;50.934;4.668;2022-07-17T02:44:03;14.10;99.90
21602;DHT22;10963;50.934;4.668;2022-07-17T02:46:32;14.20;99.90
21602;DHT22;10963;50.934;4.668;2022-07-17T02:48:57;14.10;99.90
21602;DHT22;10963;50.934;4.668;2022-07-17T02:51:23;14.20;99.90
21602;DHT22;10963;50.934;4.668;2022-07-17T02:53:51;14.00;99.90
21602;DHT22;10963;50.934;4.668;2022-07-17T02:56:17;13.90;99.90
21602;DHT22;10963;50.934;4.668;2022-07-17T02:58:42;14.00;99.90
21602;DHT22;10963;50.934;4.668;2022-07-17T03:01:10;14.00;99.90
21602;DHT22;10963;50.934;4.668;2022-07-17T03:03:36;14.00;99.90
21602;DHT22;10963;50.934;4.668;2022-07-17T03:06:01;14.00;99.90
21602;DHT22;10963;50.934;4.668;2022-07-17T03:08:29;14.00;99.90
21602;DHT22;10963;50.934;4.668;2022-07-17T03:10:55;13.90;99.90
21602;DHT22;10963;50.934;4.668;2022-07-17T03:13:21;13.90;99.90
21602;DHT22;10963;50.934;4.668;2022-07-17T03:15:49;13.90;99.90
21602;DHT22;10963;50.934;4.668;2022-07-17T03:18:15;13.90;99.90
21602;DHT22;10963;50.934;4.668;2022-07-17T03:20:43;13.90;99.90
21602;DHT22;10963;50.934;4.668;2022-07-17T03:23:11;14.00;99.90
21602;DHT22;10963;50.934;4.668;2022-07-17T03:25:37;13.90;99.90
21602;DHT22;10963;50.934;4.668;2022-07-17T03:28:05;13.80;99.90
21602;DHT22;10963;50.934;4.668;2022-07-17T03:30:31;13.70;99.90
21602;DHT22;10963;50.934;4.668;2022-07-17T03:32:57;13.70;99.90
21602;DHT22;10963;50.934;4.668;2022-07-17T03:35:23;13.70;99.90
21602;DHT22;10963;50.934;4.668;2022-07-17T03:37:49;13.70;99.90
21602;DHT22;10963;50.934;4.668;2022-07-17T03:40:14;13.60;99.90
21602;DHT22;10963;50.934;4.668;2022-07-17T03:42:48;13.60;99.90
21602;DHT22;10963;50.934;4.668;2022-07-17T03:45:15;13.70;99.90
21602;DHT22;10963;50.934;4.668;2022-07-17T03:47:41;13.70;99.90
21602;DHT22;10963;50.934;4.668;2022-07-17T03:50:07;13.80;99.90
21602;DHT22;10963;50.934;4.668;2022-07-17T03:52:36;13.80;99.90
21602;DHT22;10963;50.934;4.668;2022-07-17T03:55:04;13.80;99.90
21602;DHT22;10963;50.934;4.668;2022-07-17T03:57:30;13.80;99.90
21602;DHT22;10963;50.934;4.668;2022-07-17T03:59:55;13.70;99.90
21602;DHT22;10963;50.934;4.668;2022-07-17T04:02:21;13.80;99.90
21602;DHT22;10963;50.934;4.668;2022-07-17T04:04:49;13.70;99.90
21602;DHT22;10963;50.934;4.668;2022-07-17T04:07:15;13.70;99.90
21602;DHT22;10963;50.934;4.668;2022-07-17T04:09:54;13.70;99.90
21602;DHT22;10963;50.934;4.668;2022-07-17T04:12:22;13.70;99.90
21602;DHT22;10963;50.934;4.668;2022-07-17T04:14:48;13.70;99.90
21602;DHT22;10963;50.934;4.668;2022-07-17T04:17:14;13.70;99.90
21602;DHT22;10963;50.934;4.668;2022-07-17T04:19:45;13.70;99.90
21602;DHT22;10963;50.934;4.668;2022-07-17T04:22:11;13.70;99.90
21602;DHT22;10963;50.934;4.668;2022-07-17T04:24:37;13.70;99.90
21602;DHT22;10963;50.934;4.668;2022-07-17T04:27:06;13.70;99.90
21602;DHT22;10963;50.934;4.668;2022-07-17T04:29:33;13.60;99.90
21602;DHT22;10963;50.934;4.668;2022-07-17T04:31:59;13.70;99.90
21602;DHT22;10963;50.934;4.668;2022-07-17T04:34:28;13.70;99.90
21602;DHT22;10963;50.934;4.668;2022-07-17T04:36:55;13.70;99.90
21602;DHT22;10963;50.934;4.668;2022-07-17T04:39:21;13.70;99.90
21602;DHT22;10963;50.934;4.668;2022-07-17T04:41:51;13.70;99.90
21602;DHT22;10963;50.934;4.668;2022-07-17T04:44:17;13.70;99.90
21602;DHT22;10963;50.934;4.668;2022-07-17T04:46:44;13.80;99.90
21602;DHT22;10963;50.934;4.668;2022-07-17T04:49:10;14.00;99.90
21602;DHT22;10963;50.934;4.668;2022-07-17T04:51:39;14.10;99.90
21602;DHT22;10963;50.934;4.668;2022-07-17T04:54:10;14.30;99.90
21602;DHT22;10963;50.934;4.668;2022-07-17T04:56:38;14.40;99.90
21602;DHT22;10963;50.934;4.668;2022-07-17T04:59:03;14.40;99.90
21602;DHT22;10963;50.934;4.668;2022-07-17T05:01:29;14.40;99.90
21602;DHT22;10963;50.934;4.668;2022-07-17T05:03:55;14.60;99.90
21602;DHT22;10963;50.934;4.668;2022-07-17T05:06:21;14.80;99.90
21602;DHT22;10963;50.934;4.668;2022-07-17T05:08:46;15.00;99.90
21602;DHT22;10963;50.934;4.668;2022-07-17T05:11:14;15.20;99.90
21602;DHT22;10963;50.934;4.668;2022-07-17T05:13:42;15.20;99.90
21602;DHT22;10963;50.934;4.668;2022-07-17T05:16:10;15.20;99.90
21602;DHT22;10963;50.934;4.668;2022-07-17T05:18:36;15.20;99.90
21602;DHT22;10963;50.934;4.668;2022-07-17T05:21:02;15.30;99.90
21602;DHT22;10963;50.934;4.668;2022-07-17T05:23:28;15.50;99.90
21602;DHT22;10963;50.934;4.668;2022-07-17T05:26:00;15.60;99.90
21602;DHT22;10963;50.934;4.668;2022-07-17T05:28:26;16.00;99.90
21602;DHT22;10963;50.934;4.668;2022-07-17T05:30:52;16.30;99.90
21602;DHT22;10963;50.934;4.668;2022-07-17T05:33:18;16.60;99.90
21602;DHT22;10963;50.934;4.668;2022-07-17T05:35:47;17.10;99.90
21602;DHT22;10963;50.934;4.668;2022-07-17T05:38:13;17.60;99.90
21602;DHT22;10963;50.934;4.668;2022-07-17T05:40:39;17.70;99.90
21602;DHT22;10963;50.934;4.668;2022-07-17T05:43:04;17.90;99.90
21602;DHT22;10963;50.934;4.668;2022-07-17T05:45:33;18.10;99.90
21602;DHT22;10963;50.934;4.668;2022-07-17T05:47:58;18.30;99.90
21602;DHT22;10963;50.934;4.668;2022-07-17T05:50:24;18.40;99.90
21602;DHT22;10963;50.934;4.668;2022-07-17T05:52:52;18.70;99.90
21602;DHT22;10963;50.934;4.668;2022-07-17T05:55:18;19.30;99.90
21602;DHT22;10963;50.934;4.668;2022-07-17T05:57:44;19.90;99.90
21602;DHT22;10963;50.934;4.668;2022-07-17T06:00:10;20.80;99.90
21602;DHT22;10963;50.934;4.668;2022-07-17T06:02:38;21.50;99.90
21602;DHT22;10963;50.934;4.668;2022-07-17T06:05:04;22.00;99.90
21602;DHT22;10963;50.934;4.668;2022-07-17T06:07:30;22.50;99.90
21602;DHT22;10963;50.934;4.668;2022-07-17T06:09:55;22.80;99.90
21602;DHT22;10963;50.934;4.668;2022-07-17T06:12:21;23.30;97.70
21602;DHT22;10963;50.934;4.668;2022-07-17T06:14:50;23.40;96.90
21602;DHT22;10963;50.934;4.668;2022-07-17T06:17:18;23.60;96.70
21602;DHT22;10963;50.934;4.668;2022-07-17T06:19:45;23.70;95.50
21602;DHT22;10963;50.934;4.668;2022-07-17T06:22:20;24.20;94.70
21602;DHT22;10963;50.934;4.668;2022-07-17T06:24:46;24.60;93.80
21602;DHT22;10963;50.934;4.668;2022-07-17T06:27:15;24.80;93.10
21602;DHT22;10963;50.934;4.668;2022-07-17T06:29:43;24.60;92.30
21602;DHT22;10963;50.934;4.668;2022-07-17T06:32:11;24.30;92.90
21602;DHT22;10963;50.934;4.668;2022-07-17T06:34:42;24.50;92.30
21602;DHT22;10963;50.934;4.668;2022-07-17T06:37:10;24.70;91.40
21602;DHT22;10963;50.934;4.668;2022-07-17T06:39:38;24.30;92.10
21602;DHT22;10963;50.934;4.668;2022-07-17T06:42:04;24.30;92.30
21602;DHT22;10963;50.934;4.668;2022-07-17T06:44:30;24.50;91.90
21602;DHT22;10963;50.934;4.668;2022-07-17T06:46:55;24.60;92.20
21602;DHT22;10963;50.934;4.668;2022-07-17T06:49:21;24.20;92.00
21602;DHT22;10963;50.934;4.668;2022-07-17T06:51:47;24.30;92.00
21602;DHT22;10963;50.934;4.668;2022-07-17T06:54:14;24.20;92.10
21602;DHT22;10963;50.934;4.668;2022-07-17T06:56:41;24.00;91.50
21602;DHT22;10963;50.934;4.668;2022-07-17T06:59:06;24.20;92.20
21602;DHT22;10963;50.934;4.668;2022-07-17T07:01:38;24.40;91.90
21602;DHT22;10963;50.934;4.668;2022-07-17T07:04:04;24.90;91.40
21602;DHT22;10963;50.934;4.668;2022-07-17T07:06:30;25.00;90.90
21602;DHT22;10963;50.934;4.668;2022-07-17T07:08:56;24.80;91.00
21602;DHT22;10963;50.934;4.668;2022-07-17T07:11:23;25.00;90.80
21602;DHT22;10963;50.934;4.668;2022-07-17T07:13:51;24.80;91.00
21602;DHT22;10963;50.934;4.668;2022-07-17T07:16:17;25.10;90.10
21602;DHT22;10963;50.934;4.668;2022-07-17T07:18:42;25.40;90.10
21602;DHT22;10963;50.934;4.668;2022-07-17T07:21:10;25.60;89.60
21602;DHT22;10963;50.934;4.668;2022-07-17T07:23:40;25.70;88.10
21602;DHT22;10963;50.934;4.668;2022-07-17T07:26:07;26.10;86.80
21602;DHT22;10963;50.934;4.668;2022-07-17T07:28:37;27.00;85.30
21602;DHT22;10963;50.934;4.668;2022-07-17T07:31:06;27.40;84.70
21602;DHT22;10963;50.934;4.668;2022-07-17T07:33:31;27.50;82.60
21602;DHT22;10963;50.934;4.668;2022-07-17T07:35:57;27.40;81.80
21602;DHT22;10963;50.934;4.668;2022-07-17T07:38:23;27.40;81.30
21602;DHT22;10963;50.934;4.668;2022-07-17T07:40:49;27.00;81.70
21602;DHT22;10963;50.934;4.668;2022-07-17T07:43:19;27.20;81.90
21602;DHT22;10963;50.934;4.668;2022-07-17T07:45:47;27.20;81.80
21602;DHT22;10963;50.934;4.668;2022-07-17T07:48:13;27.60;80.20
21602;DHT22;10963;50.934;4.668;2022-07-17T07:50:42;28.20;78.20
21602;DHT22;10963;50.934;4.668;2022-07-17T07:53:08;28.20;79.20
21602;DHT22;10963;50.934;4.668;2022-07-17T07:55:34;28.40;79.50
21602;DHT22;10963;50.934;4.668;2022-07-17T07:58:05;28.70;78.30
21602;DHT22;10963;50.934;4.668;2022-07-17T08:00:34;29.30;78.30
21602;DHT22;10963;50.934;4.668;2022-07-17T08:03:00;29.10;78.30
21602;DHT22;10963;50.934;4.668;2022-07-17T08:05:26;29.10;78.70
21602;DHT22;10963;50.934;4.668;2022-07-17T08:07:54;29.20;78.10
21602;DHT22;10963;50.934;4.668;2022-07-17T08:10:20;29.20;78.00
21602;DHT22;10963;50.934;4.668;2022-07-17T08:12:46;28.90;77.00
21602;DHT22;10963;50.934;4.668;2022-07-17T08:15:12;27.90;78.50
21602;DHT22;10963;50.934;4.668;2022-07-17T08:17:41;28.00;77.90
21602;DHT22;10963;50.934;4.668;2022-07-17T08:20:07;27.90;79.10
21602;DHT22;10963;50.934;4.668;2022-07-17T08:22:36;27.60;78.60
21602;DHT22;10963;50.934;4.668;2022-07-17T08:25:04;27.60;79.80
21602;DHT22;10963;50.934;4.668;2022-07-17T08:27:40;27.40;81.50
21602;DHT22;10963;50.934;4.668;2022-07-17T08:30:11;27.80;78.50
21602;DHT22;10963;50.934;4.668;2022-07-17T08:32:40;28.20;78.10
21602;DHT22;10963;50.934;4.668;2022-07-17T08:35:11;28.50;75.20
21602;DHT22;10963;50.934;4.668;2022-07-17T08:37:48;28.70;74.30
21602;DHT22;10963;50.934;4.668;2022-07-17T08:40:19;28.80;74.10
21602;DHT22;10963;50.934;4.668;2022-07-17T08:42:45;29.00;73.20
21602;DHT22;10963;50.934;4.668;2022-07-17T08:45:12;28.70;72.50
21602;DHT22;10963;50.934;4.668;2022-07-17T08:47:40;29.00;73.50
21602;DHT22;10963;50.934;4.668;2022-07-17T08:50:10;28.70;74.30
21602;DHT22;10963;50.934;4.668;2022-07-17T08:52:39;28.50;71.60
21602;DHT22;10963;50.934;4.668;2022-07-17T08:55:09;28.70;73.20
21602;DHT22;10963;50.934;4.668;2022-07-17T08:57:40;29.20;73.10
21602;DHT22;10963;50.934;4.668;2022-07-17T09:00:06;29.50;70.60
21602;DHT22;10963;50.934;4.668;2022-07-17T09:02:33;30.20;68.80
21602;DHT22;10963;50.934;4.668;2022-07-17T09:05:01;30.80;66.80
21602;DHT22;10963;50.934;4.668;2022-07-17T09:07:26;30.70;67.50
21602;DHT22;10963;50.934;4.668;2022-07-17T09:09:52;30.50;68.50
21602;DHT22;10963;50.934;4.668;2022-07-17T09:12:28;30.80;69.70
21602;DHT22;10963;50.934;4.668;2022-07-17T09:14:56;31.20;67.40
21602;DHT22;10963;50.934;4.668;2022-07-17T09:17:24;31.40;65.80
21602;DHT22;10963;50.934;4.668;2022-07-17T09:19:55;31.50;64.30
21602;DHT22;10963;50.934;4.668;2022-07-17T09:22:23;30.70;65.10
21602;DHT22;10963;50.934;4.668;2022-07-17T09:24:51;31.30;64.30
21602;DHT22;10963;50.934;4.668;2022-07-17T09:30:09;31.30;65.70
21602;DHT22;10963;50.934;4.668;2022-07-17T09:32:39;31.50;64.20
21602;DHT22;10963;50.934;4.668;2022-07-17T09:35:10;31.80;64.40
21602;DHT22;10963;50.934;4.668;2022-07-17T09:37:37;32.20;62.10
21602;DHT22;10963;50.934;4.668;2022-07-17T09:40:14;31.80;63.50
21602;DHT22;10963;50.934;4.668;2022-07-17T09:42:58;32.10;62.70
21602;DHT22;10963;50.934;4.668;2022-07-17T09:45:25;32.70;59.60
21602;DHT22;10963;50.934;4.668;2022-07-17T09:47:53;32.00;60.70
21602;DHT22;10963;50.934;4.668;2022-07-17T09:50:20;31.30;61.50
21602;DHT22;10963;50.934;4.668;2022-07-17T09:52:50;31.30;60.70
21602;DHT22;10963;50.934;4.668;2022-07-17T09:55:19;30.80;61.10
21602;DHT22;10963;50.934;4.668;2022-07-17T09:57:49;30.90;62.70
21602;DHT22;10963;50.934;4.668;2022-07-17T10:00:16;31.50;61.30
21602;DHT22;10963;50.934;4.668;2022-07-17T10:02:45;31.90;60.80
21602;DHT22;10963;50.934;4.668;2022-07-17T10:05:12;31.30;62.20
21602;DHT22;10963;50.934;4.668;2022-07-17T10:07:46;30.70;63.90
21602;DHT22;10963;50.934;4.668;2022-07-17T10:10:14;30.90;64.20
21602;DHT22;10963;50.934;4.668;2022-07-17T10:12:42;31.10;63.10
21602;DHT22;10963;50.934;4.668;2022-07-17T10:15:09;31.70;64.10
21602;DHT22;10963;50.934;4.668;2022-07-17T10:17:38;32.20;61.80
21602;DHT22;10963;50.934;4.668;2022-07-17T10:20:04;32.40;61.10
21602;DHT22;10963;50.934;4.668;2022-07-17T10:22:41;32.80;58.80
21602;DHT22;10963;50.934;4.668;2022-07-17T10:25:11;33.50;58.10
21602;DHT22;10963;50.934;4.668;2022-07-17T10:27:52;33.30;57.00
21602;DHT22;10963;50.934;4.668;2022-07-17T10:30:29;33.00;57.60
21602;DHT22;10963;50.934;4.668;2022-07-17T10:33:04;33.10;58.40
21602;DHT22;10963;50.934;4.668;2022-07-17T10:35:47;33.60;57.30
21602;DHT22;10963;50.934;4.668;2022-07-17T10:38:14;33.60;58.00
21602;DHT22;10963;50.934;4.668;2022-07-17T10:40:41;32.80;57.90
21602;DHT22;10963;50.934;4.668;2022-07-17T10:43:08;33.10;57.90
21602;DHT22;10963;50.934;4.668;2022-07-17T10:45:42;32.30;55.80
21602;DHT22;10963;50.934;4.668;2022-07-17T10:48:13;32.20;56.60
21602;DHT22;10963;50.934;4.668;2022-07-17T10:50:42;31.70;58.10
21602;DHT22;10963;50.934;4.668;2022-07-17T10:55:40;32.50;57.10
21602;DHT22;10963;50.934;4.668;2022-07-17T10:58:24;32.80;57.10
21602;DHT22;10963;50.934;4.668;2022-07-17T11:01:09;32.00;58.30
21602;DHT22;10963;50.934;4.668;2022-07-17T11:03:50;31.50;59.20
21602;DHT22;10963;50.934;4.668;2022-07-17T11:06:30;30.90;60.50
21602;DHT22;10963;50.934;4.668;2022-07-17T11:09:10;31.00;61.30
21602;DHT22;10963;50.934;4.668;2022-07-17T11:16:53;30.90;60.00
21602;DHT22;10963;50.934;4.668;2022-07-17T11:19:24;31.30;58.90
21602;DHT22;10963;50.934;4.668;2022-07-17T11:21:50;31.40;59.10
21602;DHT22;10963;50.934;4.668;2022-07-17T11:24:19;31.50;59.50
21602;DHT22;10963;50.934;4.668;2022-07-17T11:26:49;31.40;59.30
21602;DHT22;10963;50.934;4.668;2022-07-17T11:29:18;31.20;57.50
21602;DHT22;10963;50.934;4.668;2022-07-17T11:31:47;30.80;60.50
21602;DHT22;10963;50.934;4.668;2022-07-17T11:34:23;30.30;57.90
21602;DHT22;10963;50.934;4.668;2022-07-17T11:36:49;29.50;58.70
21602;DHT22;10963;50.934;4.668;2022-07-17T11:39:17;29.20;62.90
21602;DHT22;10963;50.934;4.668;2022-07-17T11:41:49;29.10;62.50
21602;DHT22;10963;50.934;4.668;2022-07-17T11:44:21;29.10;62.10
21602;DHT22;10963;50.934;4.668;2022-07-17T11:46:51;29.10;65.20
21602;DHT22;10963;50.934;4.668;2022-07-17T11:49:26;29.00;62.30
21602;DHT22;10963;50.934;4.668;2022-07-17T11:51:56;28.50;62.90
21602;DHT22;10963;50.934;4.668;2022-07-17T11:54:22;28.40;67.70
21602;DHT22;10963;50.934;4.668;2022-07-17T11:56:54;28.30;65.40
21602;DHT22;10963;50.934;4.668;2022-07-17T11:59:31;28.30;64.60
21602;DHT22;10963;50.934;4.668;2022-07-17T12:02:07;28.40;63.60
21602;DHT22;10963;50.934;4.668;2022-07-17T12:04:33;28.40;63.90
21602;DHT22;10963;50.934;4.668;2022-07-17T12:07:00;28.60;63.10
21602;DHT22;10963;50.934;4.668;2022-07-17T12:09:31;28.70;67.60
21602;DHT22;10963;50.934;4.668;2022-07-17T12:12:01;28.60;65.30
21602;DHT22;10963;50.934;4.668;2022-07-17T12:14:30;28.80;64.60
21602;DHT22;10963;50.934;4.668;2022-07-17T12:16:57;28.70;66.20
21602;DHT22;10963;50.934;4.668;2022-07-17T12:19:24;28.80;64.60
21602;DHT22;10963;50.934;4.668;2022-07-17T12:21:55;28.40;63.90
21602;DHT22;10963;50.934;4.668;2022-07-17T12:24:36;28.30;62.50
21602;DHT22;10963;50.934;4.668;2022-07-17T12:27:15;28.50;62.80
21602;DHT22;10963;50.934;4.668;2022-07-17T12:29:42;28.50;61.70
21602;DHT22;10963;50.934;4.668;2022-07-17T12:32:13;28.40;61.50
21602;DHT22;10963;50.934;4.668;2022-07-17T12:34:44;28.40;61.30
21602;DHT22;10963;50.934;4.668;2022-07-17T12:37:20;28.30;61.10
21602;DHT22;10963;50.934;4.668;2022-07-17T12:39:49;28.40;60.80
21602;DHT22;10963;50.934;4.668;2022-07-17T12:42:16;28.50;62.30
21602;DHT22;10963;50.934;4.668;2022-07-17T12:44:46;28.50;60.30
21602;DHT22;10963;50.934;4.668;2022-07-17T12:47:14;28.40;64.10
21602;DHT22;10963;50.934;4.668;2022-07-17T12:49:40;28.50;63.20
21602;DHT22;10963;50.934;4.668;2022-07-17T12:52:06;28.50;60.30
21602;DHT22;10963;50.934;4.668;2022-07-17T12:54:34;28.60;60.30
21602;DHT22;10963;50.934;4.668;2022-07-17T12:57:00;28.40;59.20
21602;DHT22;10963;50.934;4.668;2022-07-17T12:59:28;28.30;61.40
21602;DHT22;10963;50.934;4.668;2022-07-17T13:01:54;28.30;60.20
21602;DHT22;10963;50.934;4.668;2022-07-17T13:04:20;28.60;60.30
21602;DHT22;10963;50.934;4.668;2022-07-17T13:06:51;28.80;60.30
21602;DHT22;10963;50.934;4.668;2022-07-17T13:09:17;29.00;58.50
21602;DHT22;10963;50.934;4.668;2022-07-17T13:11:43;29.00;59.70
21602;DHT22;10963;50.934;4.668;2022-07-17T13:14:09;29.00;61.40
21602;DHT22;10963;50.934;4.668;2022-07-17T13:16:43;28.90;60.30
21602;DHT22;10963;50.934;4.668;2022-07-17T13:19:09;28.90;60.20
21602;DHT22;10963;50.934;4.668;2022-07-17T13:21:36;29.00;60.90
21602;DHT22;10963;50.934;4.668;2022-07-17T13:24:03;29.10;60.30
21602;DHT22;10963;50.934;4.668;2022-07-17T13:26:29;29.10;59.60
21602;DHT22;10963;50.934;4.668;2022-07-17T13:28:57;29.20;61.80
21602;DHT22;10963;50.934;4.668;2022-07-17T13:31:23;29.30;62.50
21602;DHT22;10963;50.934;4.668;2022-07-17T13:33:49;29.40;62.50
21602;DHT22;10963;50.934;4.668;2022-07-17T13:36:14;29.40;60.20
21602;DHT22;10963;50.934;4.668;2022-07-17T13:38:40;29.30;59.30
21602;DHT22;10963;50.934;4.668;2022-07-17T13:41:08;29.10;60.20
21602;DHT22;10963;50.934;4.668;2022-07-17T13:43:34;29.00;60.00
21602;DHT22;10963;50.934;4.668;2022-07-17T13:46:02;28.60;59.30
21602;DHT22;10963;50.934;4.668;2022-07-17T13:48:27;28.60;58.70
21602;DHT22;10963;50.934;4.668;2022-07-17T13:50:54;28.70;60.20
21602;DHT22;10963;50.934;4.668;2022-07-17T13:53:19;29.00;60.50
21602;DHT22;10963;50.934;4.668;2022-07-17T13:55:45;29.20;57.40
21602;DHT22;10963;50.934;4.668;2022-07-17T13:58:11;29.00;57.50
21602;DHT22;10963;50.934;4.668;2022-07-17T14:00:40;28.90;57.40
21602;DHT22;10963;50.934;4.668;2022-07-17T14:03:08;29.10;59.30
21602;DHT22;10963;50.934;4.668;2022-07-17T14:05:34;29.30;58.60
21602;DHT22;10963;50.934;4.668;2022-07-17T14:07:59;29.30;60.30
21602;DHT22;10963;50.934;4.668;2022-07-17T14:10:25;29.40;60.00
21602;DHT22;10963;50.934;4.668;2022-07-17T14:12:54;29.60;59.10
21602;DHT22;10963;50.934;4.668;2022-07-17T14:15:22;29.50;59.60
21602;DHT22;10963;50.934;4.668;2022-07-17T14:17:48;29.50;58.00
21602;DHT22;10963;50.934;4.668;2022-07-17T14:20:13;29.50;58.60
21602;DHT22;10963;50.934;4.668;2022-07-17T14:22:39;29.40;58.80
21602;DHT22;10963;50.934;4.668;2022-07-17T14:25:05;29.30;57.40
21602;DHT22;10963;50.934;4.668;2022-07-17T14:27:33;29.20;58.00
21602;DHT22;10963;50.934;4.668;2022-07-17T14:29:59;29.40;58.30
21602;DHT22;10963;50.934;4.668;2022-07-17T14:32:25;29.20;57.40
21602;DHT22;10963;50.934;4.668;2022-07-17T14:34:53;29.10;59.10
21602;DHT22;10963;50.934;4.668;2022-07-17T14:37:21;29.10;57.70
21602;DHT22;10963;50.934;4.668;2022-07-17T14:39:47;29.40;58.60
21602;DHT22;10963;50.934;4.668;2022-07-17T14:42:13;29.40;57.40
21602;DHT22;10963;50.934;4.668;2022-07-17T14:44:41;29.20;57.00
21602;DHT22;10963;50.934;4.668;2022-07-17T14:47:07;29.20;58.40
21602;DHT22;10963;50.934;4.668;2022-07-17T14:49:37;29.30;58.00
21602;DHT22;10963;50.934;4.668;2022-07-17T14:52:03;29.30;57.40
21602;DHT22;10963;50.934;4.668;2022-07-17T14:54:29;29.40;58.80
21602;DHT22;10963;50.934;4.668;2022-07-17T14:56:56;29.30;58.70
21602;DHT22;10963;50.934;4.668;2022-07-17T14:59:26;29.20;59.60
21602;DHT22;10963;50.934;4.668;2022-07-17T15:01:52;29.30;58.90
21602;DHT22;10963;50.934;4.668;2022-07-17T15:04:18;29.10;56.60
21602;DHT22;10963;50.934;4.668;2022-07-17T15:06:43;29.30;58.50
21602;DHT22;10963;50.934;4.668;2022-07-17T15:09:13;29.40;57.40
21602;DHT22;10963;50.934;4.668;2022-07-17T15:11:39;29.50;58.10
21602;DHT22;10963;50.934;4.668;2022-07-17T15:14:05;29.60;57.30
21602;DHT22;10963;50.934;4.668;2022-07-17T15:16:30;29.70;57.50
21602;DHT22;10963;50.934;4.668;2022-07-17T15:18:57;29.90;56.70
21602;DHT22;10963;50.934;4.668;2022-07-17T15:21:22;29.90;57.50
21602;DHT22;10963;50.934;4.668;2022-07-17T15:23:48;29.70;58.30
21602;DHT22;10963;50.934;4.668;2022-07-17T15:26:14;29.50;59.20
21602;DHT22;10963;50.934;4.668;2022-07-17T15:28:40;29.40;56.70
21602;DHT22;10963;50.934;4.668;2022-07-17T15:31:10;29.40;57.40
21602;DHT22;10963;50.934;4.668;2022-07-17T15:33:38;29.50;57.80
21602;DHT22;10963;50.934;4.668;2022-07-17T15:36:08;29.50;57.70
21602;DHT22;10963;50.934;4.668;2022-07-17T15:38:34;29.60;58.40
21602;DHT22;10963;50.934;4.668;2022-07-17T15:41:01;29.60;59.20
21602;DHT22;10963;50.934;4.668;2022-07-17T15:43:34;29.50;57.70
21602;DHT22;10963;50.934;4.668;2022-07-17T15:45:59;29.50;60.00